createdAt,value
2022-11-26T00:00:52.731Z,12.27
2022-11-26T00:03:19.537Z,13.20
2022-11-26T00:05:48.744Z,12.00
2022-11-26T00:08:35.490Z,11.70
2022-11-26T00:11:02.694Z,10.87
2022-11-26T00:13:30.985Z,12.00
2022-11-26T00:15:57.526Z,12.90
2022-11-26T00:18:26.556Z,11.80
2022-11-26T00:21:00.014Z,12.30
2022-11-26T00:23:27.811Z,11.70
2022-11-26T00:25:57.327Z,12.13
2022-11-26T00:28:33.979Z,12.60
2022-11-26T00:31:03.143Z,13.60
2022-11-26T00:33:30.624Z,13.10
2022-11-26T00:36:20.294Z,13.20
2022-11-26T00:38:47.847Z,12.17
2022-11-26T00:41:19.405Z,12.40
2022-11-26T00:43:46.885Z,13.10
2022-11-26T00:46:22.686Z,13.97
2022-11-26T00:48:49.557Z,14.23
2022-11-26T00:51:23.115Z,12.87
2022-11-26T00:53:50.093Z,15.30
2022-11-26T00:56:19.651Z,15.57
2022-11-26T00:58:47.069Z,14.63
2022-11-26T01:01:17.598Z,13.40
2022-11-26T01:03:44.178Z,15.20
2022-11-26T01:06:18.176Z,14.13
2022-11-26T01:08:44.958Z,14.40
2022-11-26T01:11:17.173Z,14.07
2022-11-26T01:13:45.073Z,14.10
2022-11-26T01:16:29.804Z,13.50
2022-11-26T01:18:58.634Z,14.70
2022-11-26T01:21:27.699Z,12.20
2022-11-26T01:23:54.164Z,14.33
2022-11-26T01:26:23.497Z,14.63
2022-11-26T01:28:50.290Z,13.17
2022-11-26T01:31:19.424Z,11.70
2022-11-26T01:33:46.594Z,13.10
2022-11-26T01:36:38.203Z,12.70
2022-11-26T01:39:10.415Z,12.40
2022-11-26T01:41:40.434Z,12.83
2022-11-26T01:44:08.712Z,12.83
2022-11-26T01:46:36.628Z,12.40
2022-11-26T01:49:35.609Z,12.70
2022-11-26T01:52:04.985Z,12.03
2022-11-26T01:54:33.219Z,11.70
2022-11-26T01:57:07.558Z,12.90
2022-11-26T01:59:37.241Z,15.50
2022-11-26T02:02:03.786Z,14.20
2022-11-26T02:04:37.425Z,14.00
2022-11-26T02:07:04.599Z,15.70
2022-11-26T02:09:31.615Z,12.60
2022-11-26T02:11:58.122Z,13.47
2022-11-26T02:14:28.850Z,12.70
2022-11-26T02:17:07.498Z,14.07
2022-11-26T02:19:58.412Z,14.10
2022-11-26T02:22:46.725Z,13.70
2022-11-26T02:25:43.316Z,12.03
2022-11-26T02:28:33.434Z,12.53
2022-11-26T02:31:08.427Z,11.67
2022-11-26T02:34:03.966Z,14.03
2022-11-26T02:36:50.788Z,13.83
2022-11-26T02:39:22.700Z,12.43
2022-11-26T02:41:55.095Z,12.67
2022-11-26T02:44:24.440Z,12.20
2022-11-26T02:49:22.448Z,14.00
2022-11-26T02:51:53.734Z,14.23
2022-11-26T02:54:21.294Z,13.00
2022-11-26T02:56:48.711Z,13.70
2022-11-26T02:59:15.968Z,12.80
2022-11-26T03:01:50.375Z,14.90
2022-11-26T03:04:20.639Z,11.50
2022-11-26T03:06:47.402Z,14.17
2022-11-26T03:09:17.645Z,12.97
2022-11-26T03:11:44.965Z,12.67
2022-11-26T03:14:11.444Z,14.10
2022-11-26T03:16:38.067Z,13.23
2022-11-26T03:19:04.614Z,14.67
2022-11-26T03:21:34.416Z,16.20
2022-11-26T03:24:01.021Z,17.07
2022-11-26T03:26:27.492Z,15.40
2022-11-26T03:28:54.028Z,15.10
2022-11-26T03:31:20.836Z,14.20
2022-11-26T03:33:47.360Z,13.37
2022-11-26T03:36:13.791Z,15.57
2022-11-26T03:38:40.375Z,14.90
2022-11-26T03:41:06.849Z,14.60
2022-11-26T03:43:33.347Z,15.07
2022-11-26T03:45:59.871Z,14.50
2022-11-26T03:48:26.377Z,13.97
2022-11-26T03:50:52.914Z,16.20
2022-11-26T03:53:20.327Z,13.07
2022-11-26T03:55:47.591Z,15.23
2022-11-26T03:58:14.204Z,14.47
2022-11-26T04:00:40.797Z,14.13
2022-11-26T04:03:07.309Z,15.60
2022-11-26T04:05:33.818Z,15.57
2022-11-26T04:08:00.345Z,16.30
2022-11-26T04:10:27.968Z,14.67
2022-11-26T04:12:54.629Z,17.57
2022-11-26T04:15:21.064Z,17.50
2022-11-26T04:17:47.553Z,15.50
2022-11-26T04:20:14.280Z,14.20
2022-11-26T04:22:41.132Z,14.37
2022-11-26T04:25:08.000Z,13.23
2022-11-26T04:27:34.715Z,14.20
2022-11-26T04:30:01.187Z,15.80
2022-11-26T04:32:27.751Z,15.07
2022-11-26T04:34:54.497Z,14.83
2022-11-26T04:37:21.055Z,15.30
2022-11-26T04:39:47.504Z,14.30
2022-11-26T04:42:13.982Z,15.13
2022-11-26T04:44:40.596Z,14.67
2022-11-26T04:47:07.188Z,12.93
2022-11-26T04:49:33.684Z,13.23
2022-11-26T04:52:00.124Z,12.93
2022-11-26T04:54:26.599Z,14.40
2022-11-26T04:56:53.091Z,13.43
2022-11-26T04:59:19.612Z,13.33
2022-11-26T05:01:46.211Z,14.00
2022-11-26T05:04:12.715Z,13.63
2022-11-26T05:06:39.252Z,14.77
2022-11-26T05:09:05.870Z,14.00
2022-11-26T05:11:32.303Z,13.40
2022-11-26T05:13:58.729Z,13.03
2022-11-26T05:16:25.232Z,13.27
2022-11-26T05:18:51.793Z,13.57
2022-11-26T05:21:18.273Z,13.30
2022-11-26T05:23:44.804Z,13.00
2022-11-26T05:26:11.274Z,12.60
2022-11-26T05:28:38.013Z,15.13
2022-11-26T05:31:04.926Z,12.80
2022-11-26T05:33:31.756Z,14.40
2022-11-26T05:35:58.281Z,12.43
2022-11-26T05:38:24.804Z,14.67
2022-11-26T05:40:51.393Z,12.77
2022-11-26T05:43:18.201Z,12.07
2022-11-26T05:45:44.778Z,13.30
2022-11-26T05:48:11.509Z,14.20
2022-11-26T05:50:38.019Z,16.23
2022-11-26T05:53:04.978Z,14.50
2022-11-26T05:55:31.632Z,14.83
2022-11-26T05:57:58.274Z,13.50
2022-11-26T06:00:24.802Z,13.53
2022-11-26T06:02:59.989Z,14.00
2022-11-26T06:05:27.186Z,12.17
2022-11-26T06:07:53.678Z,12.10
2022-11-26T06:10:20.280Z,12.63
2022-11-26T06:12:46.710Z,14.97
2022-11-26T06:15:13.453Z,13.60
2022-11-26T06:17:39.979Z,14.37
2022-11-26T06:20:07.017Z,14.40
2022-11-26T06:22:40.841Z,15.50
2022-11-26T06:25:09.214Z,15.47
2022-11-26T06:27:36.686Z,15.27
2022-11-26T06:30:04.865Z,19.30
2022-11-26T06:32:31.961Z,18.57
2022-11-26T06:34:58.623Z,19.20
2022-11-26T06:37:25.719Z,18.40
2022-11-26T06:39:52.464Z,19.67
2022-11-26T06:42:19.313Z,19.50
2022-11-26T06:44:46.442Z,20.40
2022-11-26T06:47:13.686Z,19.13
2022-11-26T06:49:40.645Z,17.40
2022-11-26T06:52:08.394Z,18.17
2022-11-26T06:54:34.873Z,17.13
2022-11-26T06:57:01.378Z,17.90
2022-11-26T06:59:27.949Z,16.90
2022-11-26T07:01:54.481Z,16.90
2022-11-26T07:04:21.029Z,17.50
2022-11-26T07:06:47.521Z,18.37
2022-11-26T07:09:14.339Z,16.50
2022-11-26T07:11:41.469Z,17.80
2022-11-26T07:14:08.824Z,18.10
2022-11-26T07:16:35.912Z,17.83
2022-11-26T07:19:03.290Z,16.63
2022-11-26T07:21:31.038Z,16.90
2022-11-26T07:23:58.469Z,16.60
2022-11-26T07:26:24.952Z,16.30
2022-11-26T07:28:51.500Z,18.60
2022-11-26T07:31:20.717Z,18.03
2022-11-26T07:33:47.639Z,17.33
2022-11-26T07:36:26.371Z,17.50
2022-11-26T07:38:54.701Z,18.07
2022-11-26T07:41:21.472Z,19.20
2022-11-26T07:43:48.040Z,18.63
2022-11-26T07:46:17.144Z,17.10
2022-11-26T07:48:43.944Z,17.67
2022-11-26T07:51:19.610Z,19.70
2022-11-26T07:53:46.684Z,20.60
2022-11-26T07:56:13.361Z,16.67
2022-11-26T07:58:39.866Z,16.00
2022-11-26T08:01:11.938Z,17.47
2022-11-26T08:03:43.781Z,18.00
2022-11-26T08:06:13.293Z,15.53
2022-11-26T08:08:40.127Z,15.27
2022-11-26T08:11:25.591Z,15.27
2022-11-26T08:14:00.064Z,16.90
2022-11-26T08:16:28.800Z,16.60
2022-11-26T08:18:57.376Z,20.23
2022-11-26T08:21:24.290Z,21.80
2022-11-26T08:23:52.111Z,29.90
2022-11-26T08:26:27.432Z,23.97
2022-11-26T08:29:00.156Z,27.07
2022-11-26T08:31:28.090Z,25.23
2022-11-26T08:34:01.822Z,21.80
2022-11-26T08:36:29.953Z,19.43
2022-11-26T08:38:57.027Z,15.90
2022-11-26T08:41:24.184Z,13.93
2022-11-26T08:44:07.717Z,16.50
2022-11-26T08:46:39.862Z,15.03
2022-11-26T08:49:08.386Z,14.20
2022-11-26T08:51:34.956Z,14.17
2022-11-26T08:54:02.135Z,14.83
2022-11-26T08:56:29.081Z,17.70
2022-11-26T08:58:55.734Z,16.57
2022-11-26T09:01:24.943Z,15.57
2022-11-26T09:03:53.677Z,15.23
2022-11-26T09:06:21.349Z,14.03
2022-11-26T09:09:06.470Z,15.60
2022-11-26T09:11:35.892Z,13.80
2022-11-26T09:14:02.645Z,14.40
2022-11-26T09:16:29.560Z,12.83
2022-11-26T09:18:56.416Z,15.40
2022-11-26T09:21:23.087Z,13.60
2022-11-26T09:23:49.728Z,13.03
2022-11-26T09:26:16.571Z,10.67
2022-11-26T09:28:43.063Z,10.00
2022-11-26T09:31:09.514Z,10.60
2022-11-26T09:33:36.015Z,10.20
2022-11-26T09:36:05.905Z,10.23
2022-11-26T09:38:32.982Z,10.90
2022-11-26T09:41:36.607Z,10.30
2022-11-26T09:44:22.346Z,9.20
2022-11-26T09:47:15.359Z,9.90
2022-11-26T09:49:57.225Z,9.80
2022-11-26T09:52:27.481Z,8.63
2022-11-26T09:55:03.199Z,8.77
2022-11-26T09:57:35.935Z,8.53
2022-11-26T10:00:24.505Z,8.20
2022-11-26T10:02:55.676Z,9.07
2022-11-26T10:05:27.445Z,8.27
2022-11-26T10:08:12.873Z,9.30
2022-11-26T10:11:02.567Z,9.40
2022-11-26T10:13:41.989Z,9.93
2022-11-26T10:16:25.058Z,10.53
2022-11-26T10:18:57.617Z,8.53
2022-11-26T10:21:37.943Z,10.00
2022-11-26T10:24:30.420Z,8.90
2022-11-26T10:27:04.635Z,8.83
2022-11-26T10:29:39.141Z,8.27
2022-11-26T10:32:39.277Z,8.43
2022-11-26T10:35:06.444Z,7.90
2022-11-26T10:37:32.924Z,9.60
2022-11-26T10:40:21.927Z,10.10
2022-11-26T10:42:56.734Z,7.17
2022-11-26T10:45:25.635Z,8.43
2022-11-26T10:47:52.242Z,9.73
2022-11-26T10:50:47.197Z,9.33
2022-11-26T10:53:21.324Z,8.77
2022-11-26T10:55:48.070Z,8.97
2022-11-26T10:58:17.315Z,9.37
2022-11-26T11:00:49.946Z,10.60
2022-11-26T11:03:38.271Z,10.40
2022-11-26T11:06:19.343Z,7.90
2022-11-26T11:08:52.672Z,13.47
2022-11-26T11:11:22.805Z,9.23
2022-11-26T11:13:49.690Z,10.83
2022-11-26T11:16:25.212Z,7.13
2022-11-26T11:18:56.959Z,8.73
2022-11-26T11:21:30.351Z,6.87
2022-11-26T11:24:16.558Z,6.23
2022-11-26T11:26:45.244Z,7.67
2022-11-26T11:29:33.639Z,7.03
2022-11-26T11:32:04.320Z,7.47
2022-11-26T11:34:38.477Z,8.27
2022-11-26T11:37:15.513Z,9.60
2022-11-26T11:39:42.982Z,15.17
2022-11-26T11:42:29.140Z,7.10
2022-11-26T11:44:56.772Z,7.17
2022-11-26T11:47:44.718Z,7.10
2022-11-26T11:50:20.389Z,7.03
2022-11-26T11:53:21.164Z,7.23
2022-11-26T11:56:02.226Z,7.50
2022-11-26T11:58:44.686Z,5.53
2022-11-26T12:01:14.187Z,6.13
2022-11-26T12:04:06.072Z,5.63
2022-11-26T12:06:55.173Z,5.80
2022-11-26T12:09:24.558Z,5.47
2022-11-26T12:12:24.177Z,5.40
2022-11-26T12:14:53.621Z,4.80
2022-11-26T12:17:39.782Z,4.53
2022-11-26T12:20:27.948Z,4.97
2022-11-26T12:22:59.091Z,5.07
2022-11-26T12:25:35.348Z,4.33
2022-11-26T12:28:16.298Z,4.33
2022-11-26T12:30:46.161Z,5.10
2022-11-26T12:33:17.433Z,5.20
2022-11-26T12:35:49.294Z,4.67
2022-11-26T12:38:28.404Z,4.63
2022-11-26T12:41:00.153Z,4.77
2022-11-26T12:43:50.711Z,3.97
2022-11-26T12:46:32.179Z,4.73
2022-11-26T12:49:03.871Z,4.40
2022-11-26T12:51:52.255Z,4.90
2022-11-26T12:54:42.678Z,4.80
2022-11-26T12:57:43.176Z,4.67
2022-11-26T13:00:25.256Z,4.47
2022-11-26T13:02:53.800Z,4.50
2022-11-26T13:05:47.365Z,4.07
2022-11-26T13:08:29.697Z,4.10
2022-11-26T13:11:23.620Z,4.03
2022-11-26T13:14:14.573Z,3.40
2022-11-26T13:16:50.545Z,4.30
2022-11-26T13:19:36.207Z,5.03
2022-11-26T13:22:21.544Z,4.20
2022-11-26T13:24:55.217Z,5.20
2022-11-26T13:27:53.648Z,7.63
2022-11-26T13:30:23.752Z,4.13
2022-11-26T13:33:08.623Z,3.93
2022-11-26T13:35:59.418Z,4.70
2022-11-26T13:38:35.637Z,5.40
2022-11-26T13:41:15.688Z,4.83
2022-11-26T13:44:10.326Z,4.40
2022-11-26T13:46:41.931Z,5.13
2022-11-26T13:49:28.454Z,5.23
2022-11-26T13:52:09.074Z,6.13
2022-11-26T13:54:50.003Z,4.93
2022-11-26T13:57:20.777Z,5.27
2022-11-26T13:59:49.814Z,5.00
2022-11-26T14:02:42.588Z,5.60
2022-11-26T14:05:18.538Z,5.50
2022-11-26T14:07:45.558Z,4.43
2022-11-26T14:10:34.010Z,5.10
2022-11-26T14:13:03.602Z,5.00
2022-11-26T14:15:42.451Z,4.20
2022-11-26T14:18:11.332Z,4.83
2022-11-26T14:20:59.739Z,4.30
2022-11-26T14:23:41.822Z,4.83
2022-11-26T14:26:09.909Z,4.17
2022-11-26T14:28:36.597Z,5.47
2022-11-26T14:31:12.057Z,4.53
2022-11-26T14:33:44.703Z,4.77
2022-11-26T14:36:26.486Z,4.47
2022-11-26T14:39:22.230Z,5.53
2022-11-26T14:41:48.670Z,4.60
2022-11-26T14:44:16.689Z,4.83
2022-11-26T14:46:45.398Z,3.37
2022-11-26T14:49:23.670Z,4.70
2022-11-26T14:51:50.835Z,3.90
2022-11-26T14:54:29.812Z,4.47
2022-11-26T14:56:58.155Z,3.77
2022-11-26T14:59:24.669Z,4.40
2022-11-26T15:01:51.305Z,4.53
2022-11-26T15:04:34.498Z,5.60
2022-11-26T15:07:00.963Z,4.70
2022-11-26T15:09:28.196Z,4.27
2022-11-26T15:12:04.056Z,4.90
2022-11-26T15:14:40.266Z,4.37
2022-11-26T15:17:10.482Z,4.80
2022-11-26T15:19:38.283Z,5.47
2022-11-26T15:22:18.051Z,5.10
2022-11-26T15:24:48.212Z,4.90
2022-11-26T15:27:30.208Z,4.20
2022-11-26T15:29:56.738Z,5.53
2022-11-26T15:32:28.993Z,5.20
2022-11-26T15:34:57.345Z,4.10
2022-11-26T15:37:23.806Z,4.33
2022-11-26T15:40:26.052Z,4.90
2022-11-26T15:42:56.378Z,4.90
2022-11-26T15:45:24.482Z,6.30
2022-11-26T15:47:52.461Z,12.40
2022-11-26T15:50:24.763Z,4.77
2022-11-26T15:52:55.757Z,4.83
2022-11-26T15:55:27.212Z,5.10
2022-11-26T15:57:54.002Z,4.47
2022-11-26T16:00:27.992Z,5.10
2022-11-26T16:02:55.640Z,6.67
2022-11-26T16:05:23.841Z,6.23
2022-11-26T16:07:58.485Z,5.90
2022-11-26T16:10:27.196Z,4.93
2022-11-26T16:13:27.315Z,5.70
2022-11-26T16:15:58.988Z,5.57
2022-11-26T16:18:36.687Z,4.60
2022-11-26T16:21:08.424Z,5.20
2022-11-26T16:23:35.225Z,4.97
2022-11-26T16:26:17.743Z,6.20
2022-11-26T16:28:45.762Z,4.97
2022-11-26T16:31:13.526Z,5.50
2022-11-26T16:33:40.612Z,5.33
2022-11-26T16:36:22.454Z,4.63
2022-11-26T16:38:49.200Z,5.20
2022-11-26T16:41:17.563Z,6.00
2022-11-26T16:43:44.390Z,4.30
2022-11-26T16:46:16.467Z,4.23
2022-11-26T16:48:44.538Z,4.30
2022-11-26T16:51:11.116Z,3.57
2022-11-26T16:53:38.015Z,4.03
2022-11-26T16:56:04.986Z,4.90
2022-11-26T16:58:34.534Z,4.73
2022-11-26T17:01:01.221Z,4.13
2022-11-26T17:03:32.811Z,4.43
2022-11-26T17:06:13.537Z,5.17
2022-11-26T17:08:42.841Z,4.93
2022-11-26T17:11:13.589Z,5.00
2022-11-26T17:13:40.053Z,4.13
2022-11-26T17:16:19.950Z,4.10
2022-11-26T17:18:47.258Z,4.90
2022-11-26T17:21:14.469Z,6.43
2022-11-26T17:23:40.996Z,6.77
2022-11-26T17:26:20.000Z,5.83
2022-11-26T17:28:47.069Z,5.00
2022-11-26T17:31:14.261Z,4.30
2022-11-26T17:33:41.061Z,5.13
2022-11-26T17:36:16.811Z,4.23
2022-11-26T17:38:43.927Z,9.10
2022-11-26T17:41:11.218Z,10.93
2022-11-26T17:43:38.257Z,4.83
2022-11-26T17:46:04.989Z,4.77
2022-11-26T17:48:31.591Z,4.73
2022-11-26T17:50:58.023Z,5.27
2022-11-26T17:53:24.558Z,5.30
2022-11-26T17:55:51.113Z,5.13
2022-11-26T17:58:17.620Z,5.07
2022-11-26T18:00:44.176Z,5.43
2022-11-26T18:03:10.770Z,4.80
2022-11-26T18:05:41.853Z,4.00
2022-11-26T18:08:08.808Z,4.70
2022-11-26T18:10:35.482Z,4.07
2022-11-26T18:13:02.377Z,5.30
2022-11-26T18:15:28.861Z,4.60
2022-11-26T18:17:55.702Z,5.03
2022-11-26T18:20:25.736Z,5.70
2022-11-26T18:22:54.710Z,4.33
2022-11-26T18:25:21.549Z,5.33
2022-11-26T18:27:48.171Z,4.30
2022-11-26T18:30:16.901Z,5.40
2022-11-26T18:32:43.610Z,5.20
2022-11-26T18:35:10.517Z,4.57
2022-11-26T18:37:38.321Z,5.60
2022-11-26T18:40:06.731Z,5.07
2022-11-26T18:42:37.958Z,4.77
2022-11-26T18:45:07.750Z,4.83
2022-11-26T18:47:34.410Z,5.27
2022-11-26T18:50:00.914Z,4.57
2022-11-26T18:52:27.416Z,4.77
2022-11-26T18:54:54.078Z,5.17
2022-11-26T18:57:20.602Z,5.30
2022-11-26T18:59:47.334Z,6.00
2022-11-26T19:02:14.185Z,4.77
2022-11-26T19:04:41.190Z,6.30
2022-11-26T19:07:08.864Z,4.90
2022-11-26T19:09:35.354Z,5.13
2022-11-26T19:12:02.132Z,5.13
2022-11-26T19:14:28.592Z,5.43
2022-11-26T19:16:55.214Z,5.60
2022-11-26T19:19:22.781Z,5.37
2022-11-26T19:21:50.288Z,5.80
2022-11-26T19:24:16.825Z,5.47
2022-11-26T19:26:43.322Z,5.80
2022-11-26T19:29:11.405Z,5.80
2022-11-26T19:31:39.582Z,5.40
2022-11-26T19:34:10.074Z,5.60
2022-11-26T19:36:37.565Z,5.57
2022-11-26T19:39:05.181Z,6.77
2022-11-26T19:41:32.431Z,6.07
2022-11-26T19:44:05.259Z,6.10
2022-11-26T19:46:31.906Z,5.57
2022-11-26T19:48:58.390Z,9.23
2022-11-26T19:51:26.419Z,7.17
2022-11-26T19:53:54.534Z,5.83
2022-11-26T19:56:26.488Z,5.80
2022-11-26T19:59:00.533Z,5.27
2022-11-26T20:01:30.488Z,7.40
2022-11-26T20:03:58.839Z,6.80
2022-11-26T20:06:26.739Z,7.50
2022-11-26T20:08:54.118Z,8.13
2022-11-26T20:11:20.899Z,6.40
2022-11-26T20:13:48.427Z,5.83
2022-11-26T20:16:20.955Z,4.70
2022-11-26T20:18:48.519Z,4.60
2022-11-26T20:21:19.796Z,4.57
2022-11-26T20:23:47.437Z,4.20
2022-11-26T20:26:29.342Z,5.47
2022-11-26T20:28:56.953Z,4.07
2022-11-26T20:31:24.463Z,5.27
2022-11-26T20:33:54.598Z,4.33
2022-11-26T20:36:23.128Z,5.40
2022-11-26T20:38:54.090Z,5.70
2022-11-26T20:41:20.760Z,5.20
2022-11-26T20:43:47.630Z,5.07
2022-11-26T20:46:14.753Z,5.13
2022-11-26T20:48:43.357Z,4.70
2022-11-26T20:51:12.445Z,5.27
2022-11-26T20:53:39.432Z,5.50
2022-11-26T20:56:06.648Z,4.57
2022-11-26T20:58:34.402Z,4.53
2022-11-26T21:01:01.557Z,5.00
2022-11-26T21:03:29.168Z,4.40
2022-11-26T21:05:55.768Z,4.60
2022-11-26T21:08:23.026Z,11.00
2022-11-26T21:10:50.133Z,5.17
2022-11-26T21:13:18.157Z,4.20
2022-11-26T21:15:47.405Z,4.80
2022-11-26T21:18:14.627Z,4.67
2022-11-26T21:20:42.347Z,5.17
2022-11-26T21:23:09.540Z,4.43
2022-11-26T21:25:38.220Z,3.97
2022-11-26T21:28:05.846Z,4.80
2022-11-26T21:30:33.235Z,4.70
2022-11-26T21:33:02.194Z,4.97
2022-11-26T21:35:32.154Z,5.00
2022-11-26T21:37:59.199Z,4.80
2022-11-26T21:40:27.410Z,4.07
2022-11-26T21:42:53.915Z,4.33
2022-11-26T21:45:20.648Z,4.60
2022-11-26T21:47:49.963Z,4.33
2022-11-26T21:50:16.560Z,4.90
2022-11-26T21:52:43.472Z,4.53
2022-11-26T21:55:10.100Z,4.80
2022-11-26T21:57:36.622Z,4.57
2022-11-26T22:00:04.730Z,4.13
2022-11-26T22:02:31.281Z,4.67
2022-11-26T22:04:58.228Z,4.63
2022-11-26T22:07:24.859Z,4.70
2022-11-26T22:09:51.419Z,4.80
2022-11-26T22:12:17.904Z,4.37
2022-11-26T22:14:44.373Z,5.30
2022-11-26T22:17:10.854Z,4.57
2022-11-26T22:19:37.766Z,4.80
2022-11-26T22:22:04.737Z,4.60
2022-11-26T22:24:31.436Z,7.40
2022-11-26T22:26:59.261Z,6.80
2022-11-26T22:29:25.757Z,7.70
2022-11-26T22:31:52.303Z,8.77
2022-11-26T22:34:21.813Z,8.67
2022-11-26T22:36:48.362Z,8.10
2022-11-26T22:39:16.776Z,7.60
2022-11-26T22:41:44.287Z,6.87
2022-11-26T22:44:11.094Z,7.90
2022-11-26T22:46:41.013Z,8.63
2022-11-26T22:49:10.323Z,7.80
2022-11-26T22:51:36.880Z,6.83
2022-11-26T22:54:07.085Z,7.30
2022-11-26T22:56:34.287Z,7.63
2022-11-26T22:59:01.488Z,6.80
2022-11-26T23:01:30.681Z,6.60
2022-11-26T23:03:58.958Z,13.33
2022-11-26T23:06:29.834Z,9.90
2022-11-26T23:08:57.603Z,7.10
2022-11-26T23:11:26.550Z,6.20
2022-11-26T23:13:53.475Z,5.97
2022-11-26T23:16:22.315Z,5.40
2022-11-26T23:18:48.867Z,6.00
2022-11-26T23:21:19.127Z,5.50
2022-11-26T23:23:46.175Z,5.50
2022-11-26T23:26:27.521Z,5.00
2022-11-26T23:28:55.829Z,5.60
2022-11-26T23:31:24.702Z,5.13
2022-11-26T23:33:51.393Z,6.90
2022-11-26T23:36:19.101Z,5.90
2022-11-26T23:38:46.102Z,6.50
2022-11-26T23:41:12.587Z,5.60
2022-11-26T23:43:39.668Z,6.10
2022-11-26T23:46:15.586Z,5.10
2022-11-26T23:48:42.867Z,4.03
2022-11-26T23:51:11.933Z,3.10
2022-11-26T23:53:40.368Z,4.37
2022-11-26T23:56:10.725Z,3.70
2022-11-26T23:58:37.561Z,3.93
